Time;durP1;ratioP1;P1;durP2;ratioP2;P2;SDS_P1;SDS_P2;PMS_P1;PMS_P2;Temp;Humidity;BMP_temperature;BMP_pressure;BME280_temperature;BME280_humidity;BME280_pressure;Samples;Min_cycle;Max_cycle;Signal;HPM_P1;HPM_P2
2022/10/20 00:02:22;;;;;;;;;;;23.80;99.90;;;;;;4993932;28;20277;-53
2022/10/20 00:04:47;;;;;;;;;;;23.80;99.90;;;;;;4994025;28;19914;-53
2022/10/20 00:07:13;;;;;;;;;;;23.80;99.90;;;;;;4994100;28;19937;-53
2022/10/20 00:09:39;;;;;;;;;;;23.80;99.90;;;;;;4993958;28;19993;-53
2022/10/20 00:12:04;;;;;;;;;;;23.80;99.90;;;;;;4993765;28;19992;-53
2022/10/20 00:14:30;;;;;;;;;;;23.70;99.90;;;;;;4993818;28;19906;-52
2022/10/20 00:16:55;;;;;;;;;;;23.70;99.90;;;;;;4993867;28;19996;-53
2022/10/20 00:19:21;;;;;;;;;;;23.70;99.90;;;;;;4993808;28;19935;-51
2022/10/20 00:21:46;;;;;;;;;;;23.70;99.90;;;;;;4993499;28;19917;-52
2022/10/20 00:24:12;;;;;;;;;;;23.70;99.90;;;;;;4993790;28;19916;-52
2022/10/20 00:26:38;;;;;;;;;;;23.70;99.90;;;;;;4993688;28;20277;-52
2022/10/20 00:29:03;;;;;;;;;;;23.70;99.90;;;;;;4993645;28;20392;-52
2022/10/20 00:31:29;;;;;;;;;;;23.70;99.90;;;;;;4993660;28;19912;-52
2022/10/20 00:33:55;;;;;;;;;;;23.70;99.90;;;;;;4993324;28;19909;-51
2022/10/20 00:36:21;;;;;;;;;;;23.70;99.90;;;;;;4993327;28;20052;-52
2022/10/20 00:38:47;;;;;;;;;;;23.70;99.90;;;;;;4993316;28;19968;-52
2022/10/20 00:41:13;;;;;;;;;;;23.70;99.90;;;;;;4993270;28;20344;-52
2022/10/20 00:43:40;;;;;;;;;;;23.70;99.90;;;;;;4993332;28;20436;-53
2022/10/20 00:46:05;;;;;;;;;;;23.70;99.90;;;;;;4993393;28;19906;-53
2022/10/20 00:48:31;;;;;;;;;;;23.60;99.90;;;;;;4993188;28;19977;-53
2022/10/20 00:50:57;;;;;;;;;;;23.60;99.90;;;;;;4993145;28;20172;-53
2022/10/20 00:53:25;;;;;;;;;;;23.60;99.90;;;;;;4993131;28;19906;-53
2022/10/20 00:55:53;;;;;;;;;;;23.60;99.90;;;;;;4993013;28;19956;-52
2022/10/20 00:58:19;;;;;;;;;;;23.50;99.90;;;;;;5008103;28;19956;-52
2022/10/20 01:00:46;;;;;;;;;;;23.50;99.90;;;;;;5004871;23;19921;-53
2022/10/20 01:03:15;;;;;;;;;;;23.50;99.90;;;;;;4993148;28;19961;-53
2022/10/20 01:05:41;;;;;;;;;;;23.50;99.90;;;;;;4992896;28;19905;-53
2022/10/20 01:08:06;;;;;;;;;;;23.50;99.90;;;;;;4991648;28;19906;-53
2022/10/20 01:10:37;;;;;;;;;;;23.50;99.90;;;;;;4992823;28;19905;-53
2022/10/20 01:13:10;;;;;;;;;;;23.50;99.90;;;;;;4992896;28;19910;-53
2022/10/20 01:15:54;;;;;;;;;;;23.50;99.90;;;;;;4992791;28;20373;-53
2022/10/20 01:18:52;;;;;;;;;;;23.50;99.90;;;;;;4992796;28;19905;-53
2022/10/20 01:21:26;;;;;;;;;;;23.50;99.90;;;;;;4991509;28;20376;-54
2022/10/20 01:24:07;;;;;;;;;;;23.50;99.90;;;;;;4992632;28;19997;-54
2022/10/20 01:26:32;;;;;;;;;;;23.50;99.90;;;;;;4992636;28;19960;-53
2022/10/20 01:29:24;;;;;;;;;;;23.50;99.90;;;;;;4992462;28;20277;-53
2022/10/20 01:32:08;;;;;;;;;;;23.50;99.90;;;;;;4991384;28;20230;-53
2022/10/20 01:34:34;;;;;;;;;;;23.50;99.90;;;;;;4992444;28;19910;-53
2022/10/20 01:37:20;;;;;;;;;;;23.50;99.90;;;;;;4992435;28;19905;-54
2022/10/20 01:39:51;;;;;;;;;;;23.50;99.90;;;;;;4992483;28;19906;-54
2022/10/20 01:42:21;;;;;;;;;;;23.40;99.90;;;;;;4992512;28;19957;-54
2022/10/20 01:44:48;;;;;;;;;;;23.40;99.90;;;;;;4992637;28;19913;-54
2022/10/20 01:47:14;;;;;;;;;;;23.40;99.90;;;;;;4992242;28;19906;-54
2022/10/20 01:49:42;;;;;;;;;;;23.40;99.90;;;;;;4992248;28;20001;-54
2022/10/20 01:52:09;;;;;;;;;;;23.40;99.90;;;;;;4992422;28;19906;-54
2022/10/20 01:54:34;;;;;;;;;;;23.40;99.90;;;;;;4992647;28;20455;-54
2022/10/20 01:57:21;;;;;;;;;;;23.40;99.90;;;;;;4992187;28;19905;-54
2022/10/20 01:59:47;;;;;;;;;;;23.40;99.90;;;;;;4992812;28;19909;-54
2022/10/20 02:02:15;;;;;;;;;;;23.40;99.90;;;;;;4992055;28;20279;-54
2022/10/20 02:04:50;;;;;;;;;;;23.30;99.90;;;;;;4992176;28;20133;-54
2022/10/20 02:07:34;;;;;;;;;;;23.40;99.90;;;;;;4992258;28;19952;-54
2022/10/20 02:10:32;;;;;;;;;;;23.40;99.90;;;;;;4992179;28;19905;-54
2022/10/20 02:13:01;;;;;;;;;;;23.30;99.90;;;;;;4990775;28;20004;-54
2022/10/20 02:15:29;;;;;;;;;;;23.30;99.90;;;;;;4995462;28;20270;-54
2022/10/20 02:17:57;;;;;;;;;;;23.30;99.90;;;;;;4996149;28;19909;-54
2022/10/20 02:20:23;;;;;;;;;;;23.30;99.90;;;;;;4996054;28;19905;-54
2022/10/20 02:22:49;;;;;;;;;;;23.30;99.90;;;;;;4996136;28;20380;-53
2022/10/20 02:25:15;;;;;;;;;;;23.20;99.90;;;;;;4995839;28;20277;-53
2022/10/20 02:27:44;;;;;;;;;;;23.20;99.90;;;;;;4995981;28;19932;-53
2022/10/20 02:30:11;;;;;;;;;;;23.20;99.90;;;;;;4996058;28;19968;-54
2022/10/20 02:32:38;;;;;;;;;;;23.20;99.90;;;;;;4995873;28;20357;-53
2022/10/20 02:35:06;;;;;;;;;;;23.20;99.90;;;;;;4995811;28;20284;-53
2022/10/20 02:37:31;;;;;;;;;;;23.20;99.90;;;;;;4995800;28;19952;-54
2022/10/20 02:39:57;;;;;;;;;;;23.20;99.90;;;;;;5010679;28;19945;-53
2022/10/20 02:42:22;;;;;;;;;;;23.20;99.90;;;;;;4995947;28;19913;-54
2022/10/20 02:44:48;;;;;;;;;;;23.20;99.90;;;;;;4995810;28;19906;-54
2022/10/20 02:47:13;;;;;;;;;;;23.20;1.40;;;;;;4995581;28;19917;-54
2022/10/20 02:49:39;;;;;;;;;;;23.20;99.90;;;;;;4995593;28;19905;-54
2022/10/20 02:52:05;;;;;;;;;;;23.20;1.40;;;;;;4995539;28;20000;-53
2022/10/20 02:54:30;;;;;;;;;;;23.10;1.40;;;;;;4995498;28;19906;-53
2022/10/20 02:56:56;;;;;;;;;;;23.20;1.00;;;;;;4995317;28;20338;-54
2022/10/20 02:59:21;;;;;;;;;;;23.20;1.40;;;;;;4994904;28;20301;-53
2022/10/20 03:01:47;;;;;;;;;;;23.10;99.90;;;;;;4995033;28;20369;-53
2022/10/20 03:04:13;;;;;;;;;;;23.20;99.90;;;;;;4995294;28;19913;-53
2022/10/20 03:06:39;;;;;;;;;;;23.10;1.40;;;;;;4995411;28;19905;-53
2022/10/20 03:09:05;;;;;;;;;;;23.10;99.90;;;;;;4995095;28;19906;-54
2022/10/20 03:11:30;;;;;;;;;;;23.20;99.90;;;;;;4995226;28;20281;-54
2022/10/20 03:13:56;;;;;;;;;;;23.20;99.90;;;;;;4995106;28;19988;-54
2022/10/20 03:16:21;;;;;;;;;;;23.20;99.90;;;;;;4995160;28;19905;-53
2022/10/20 03:18:47;;;;;;;;;;;23.20;99.90;;;;;;4995024;28;19906;-53
2022/10/20 03:21:13;;;;;;;;;;;23.20;99.90;;;;;;4994837;28;19914;-53
2022/10/20 03:23:38;;;;;;;;;;;23.10;99.90;;;;;;4994772;28;20048;-54
2022/10/20 03:26:05;;;;;;;;;;;23.20;99.90;;;;;;4993721;28;19909;-53
2022/10/20 03:28:31;;;;;;;;;;;23.20;99.90;;;;;;4994476;28;19916;-53
2022/10/20 03:30:56;;;;;;;;;;;23.10;99.90;;;;;;4994898;28;19906;-52
2022/10/20 03:33:22;;;;;;;;;;;23.10;99.90;;;;;;4994764;28;19955;-53
2022/10/20 03:35:48;;;;;;;;;;;23.10;99.90;;;;;;4994539;28;19992;-52
2022/10/20 03:38:13;;;;;;;;;;;23.10;99.90;;;;;;4994654;28;19906;-53
2022/10/20 03:40:39;;;;;;;;;;;23.10;99.90;;;;;;4994248;28;19906;-53
2022/10/20 03:43:04;;;;;;;;;;;23.20;99.90;;;;;;4994055;28;19912;-53
2022/10/20 03:45:30;;;;;;;;;;;23.10;99.90;;;;;;4994194;28;19957;-53
2022/10/20 03:47:56;;;;;;;;;;;23.10;99.90;;;;;;4994200;28;19906;-53
2022/10/20 03:50:21;;;;;;;;;;;23.10;99.90;;;;;;4994258;28;20348;-53
2022/10/20 03:52:47;;;;;;;;;;;23.10;99.90;;;;;;4994195;28;19905;-53
2022/10/20 03:55:14;;;;;;;;;;;23.10;99.90;;;;;;4994106;28;20000;-53
2022/10/20 03:57:39;;;;;;;;;;;23.10;99.90;;;;;;4994207;28;19906;-53
2022/10/20 04:00:05;;;;;;;;;;;23.10;99.90;;;;;;5009785;28;19917;-53
2022/10/20 04:02:32;;;;;;;;;;;23.10;99.90;;;;;;4994470;28;20356;-54
2022/10/20 04:04:58;;;;;;;;;;;23.00;99.90;;;;;;4994232;28;19906;-54
2022/10/20 04:07:24;;;;;;;;;;;23.00;99.90;;;;;;4994153;28;19929;-54
2022/10/20 04:09:49;;;;;;;;;;;23.00;99.90;;;;;;4994115;28;19921;-54
2022/10/20 04:12:15;;;;;;;;;;;23.00;99.90;;;;;;4993979;28;19906;-54
2022/10/20 04:14:40;;;;;;;;;;;23.00;99.90;;;;;;4993912;28;19992;-54
2022/10/20 04:17:06;;;;;;;;;;;23.00;99.90;;;;;;4993951;28;19906;-54
2022/10/20 04:19:31;;;;;;;;;;;23.00;99.90;;;;;;4993910;28;19909;-55
2022/10/20 04:21:57;;;;;;;;;;;23.00;99.90;;;;;;4993880;28;19913;-53
2022/10/20 04:24:23;;;;;;;;;;;22.90;99.90;;;;;;4993841;28;19912;-53
2022/10/20 04:26:48;;;;;;;;;;;22.90;99.90;;;;;;4993776;28;20358;-53
2022/10/20 04:29:14;;;;;;;;;;;22.90;99.90;;;;;;4993626;28;19917;-53
2022/10/20 04:31:39;;;;;;;;;;;22.90;99.90;;;;;;4993678;28;19909;-53
2022/10/20 04:34:05;;;;;;;;;;;22.90;99.90;;;;;;4993556;28;19906;-53
2022/10/20 04:36:30;;;;;;;;;;;22.90;99.90;;;;;;4993380;28;19952;-53
2022/10/20 04:38:56;;;;;;;;;;;22.90;99.90;;;;;;4993548;28;20358;-53
2022/10/20 04:41:22;;;;;;;;;;;22.90;99.90;;;;;;4993414;28;19914;-53
2022/10/20 04:43:52;;;;;;;;;;;22.90;99.90;;;;;;4993452;28;19905;-53
2022/10/20 04:46:17;;;;;;;;;;;22.90;99.90;;;;;;4993349;28;20381;-52
2022/10/20 04:48:43;;;;;;;;;;;22.90;99.90;;;;;;4993292;28;19906;-53
2022/10/20 04:51:10;;;;;;;;;;;22.90;99.90;;;;;;4993126;28;19928;-53
2022/10/20 04:53:36;;;;;;;;;;;22.90;99.90;;;;;;4991798;28;20354;-53
2022/10/20 04:56:02;;;;;;;;;;;22.90;99.90;;;;;;4993308;28;19960;-53
2022/10/20 04:58:28;;;;;;;;;;;22.90;99.90;;;;;;4993201;28;20374;-52
2022/10/20 05:00:58;;;;;;;;;;;22.90;99.90;;;;;;4992757;28;19964;-53
2022/10/20 05:03:24;;;;;;;;;;;22.90;99.90;;;;;;4992797;28;20346;-53
2022/10/20 05:05:49;;;;;;;;;;;22.90;99.90;;;;;;4992887;28;19964;-53
2022/10/20 05:08:15;;;;;;;;;;;22.90;99.90;;;;;;4992802;28;20358;-53
2022/10/20 05:10:41;;;;;;;;;;;22.90;99.90;;;;;;4992799;28;19913;-54
2022/10/20 05:13:06;;;;;;;;;;;22.90;99.90;;;;;;4992624;28;20357;-54
2022/10/20 05:15:32;;;;;;;;;;;23.00;99.90;;;;;;4992869;28;19910;-54
2022/10/20 05:17:57;;;;;;;;;;;23.00;99.90;;;;;;4992850;28;19906;-54
2022/10/20 05:20:23;;;;;;;;;;;23.00;99.90;;;;;;4992643;28;20020;-54
2022/10/20 05:22:49;;;;;;;;;;;23.00;99.90;;;;;;4992582;28;19915;-54
2022/10/20 05:25:14;;;;;;;;;;;23.00;99.90;;;;;;4992528;28;19913;-55
2022/10/20 05:27:40;;;;;;;;;;;23.00;99.90;;;;;;4992531;28;19992;-54
2022/10/20 05:30:06;;;;;;;;;;;23.00;99.90;;;;;;4992572;28;19975;-54
2022/10/20 05:32:31;;;;;;;;;;;23.00;99.90;;;;;;4992774;28;19913;-54
2022/10/20 05:34:57;;;;;;;;;;;23.00;99.90;;;;;;4992382;28;19909;-54
2022/10/20 05:37:22;;;;;;;;;;;23.00;99.90;;;;;;4990926;28;20004;-54
2022/10/20 05:39:48;;;;;;;;;;;23.00;99.90;;;;;;5007297;28;19905;-54
2022/10/20 05:42:13;;;;;;;;;;;23.00;99.90;;;;;;4992182;28;20334;-54
2022/10/20 05:44:39;;;;;;;;;;;23.00;99.90;;;;;;4992310;28;19905;-54
2022/10/20 05:47:05;;;;;;;;;;;23.00;99.90;;;;;;4992041;28;19912;-54
2022/10/20 05:49:30;;;;;;;;;;;23.00;99.90;;;;;;4991216;28;20369;-54
2022/10/20 05:51:56;;;;;;;;;;;23.00;99.90;;;;;;4992176;28;19910;-54
2022/10/20 05:54:21;;;;;;;;;;;23.00;99.90;;;;;;4992067;28;19992;-54
2022/10/20 05:56:47;;;;;;;;;;;23.00;99.90;;;;;;4992244;28;19913;-54
2022/10/20 05:59:13;;;;;;;;;;;23.00;99.90;;;;;;4991936;28;20277;-54
2022/10/20 06:01:46;;;;;;;;;;;23.00;99.90;;;;;;4991724;28;19964;-54
2022/10/20 06:04:13;;;;;;;;;;;23.00;99.90;;;;;;4992149;28;19960;-54
2022/10/20 06:06:38;;;;;;;;;;;23.00;99.90;;;;;;4992146;28;19956;-54
2022/10/20 06:09:05;;;;;;;;;;;23.00;99.90;;;;;;4992241;28;20350;-55
2022/10/20 06:11:31;;;;;;;;;;;23.00;99.90;;;;;;4992087;28;19905;-54
2022/10/20 06:13:56;;;;;;;;;;;23.00;99.90;;;;;;4991982;28;19929;-54
2022/10/20 06:16:23;;;;;;;;;;;23.00;99.90;;;;;;4991982;28;19910;-54
2022/10/20 06:18:49;;;;;;;;;;;23.00;99.90;;;;;;4991956;28;19908;-54
2022/10/20 06:21:16;;;;;;;;;;;23.00;99.90;;;;;;4991759;28;20282;-54
2022/10/20 06:23:42;;;;;;;;;;;23.00;99.90;;;;;;4991901;28;19906;-54
2022/10/20 06:26:09;;;;;;;;;;;23.00;99.90;;;;;;4991967;28;19914;-54
2022/10/20 06:28:36;;;;;;;;;;;23.00;99.90;;;;;;4991887;28;20372;-54
2022/10/20 06:31:11;;;;;;;;;;;23.00;99.90;;;;;;4991715;28;20345;-54
2022/10/20 06:33:37;;;;;;;;;;;23.00;99.90;;;;;;4991914;28;19988;-54
2022/10/20 06:36:02;;;;;;;;;;;23.00;99.90;;;;;;4991724;28;20063;-54
2022/10/20 06:38:28;;;;;;;;;;;22.90;99.90;;;;;;4991670;28;20261;-54
2022/10/20 06:40:54;;;;;;;;;;;23.00;99.90;;;;;;4991797;28;20004;-54
2022/10/20 06:43:20;;;;;;;;;;;22.90;99.90;;;;;;4991674;28;20317;-54
2022/10/20 06:45:59;;;;;;;;;;;22.90;99.90;;;;;;4991789;28;19906;-54
2022/10/20 06:48:25;;;;;;;;;;;22.90;99.90;;;;;;4991475;28;19905;-54
2022/10/20 06:50:58;;;;;;;;;;;22.90;99.90;;;;;;4991516;28;19916;-54
2022/10/20 06:53:24;;;;;;;;;;;22.90;99.90;;;;;;4990165;28;20004;-54
2022/10/20 06:55:55;;;;;;;;;;;22.90;99.90;;;;;;4991457;28;20152;-54
2022/10/20 06:58:21;;;;;;;;;;;22.90;99.90;;;;;;4991465;28;19905;-54
2022/10/20 07:00:46;;;;;;;;;;;22.90;99.90;;;;;;4993194;28;20275;-54
2022/10/20 07:03:12;;;;;;;;;;;22.90;99.90;;;;;;4995006;28;20461;-55
2022/10/20 07:05:37;;;;;;;;;;;23.00;99.90;;;;;;5010318;28;19905;-54
2022/10/20 07:08:03;;;;;;;;;;;22.90;99.90;;;;;;4995093;28;19906;-54
2022/10/20 07:10:29;;;;;;;;;;;23.00;99.90;;;;;;4994912;28;20269;-54
2022/10/20 07:12:54;;;;;;;;;;;23.00;99.90;;;;;;4994960;28;19905;-54
2022/10/20 07:15:20;;;;;;;;;;;22.90;99.90;;;;;;4994770;28;20288;-54
2022/10/20 07:17:47;;;;;;;;;;;22.90;99.90;;;;;;4994870;28;19913;-54
2022/10/20 07:20:13;;;;;;;;;;;23.00;99.90;;;;;;4994810;28;19906;-54
2022/10/20 07:22:38;;;;;;;;;;;23.00;99.90;;;;;;4994845;28;19936;-54
2022/10/20 07:25:05;;;;;;;;;;;23.00;99.90;;;;;;4994749;28;19906;-54
2022/10/20 07:27:31;;;;;;;;;;;23.00;99.90;;;;;;4994774;28;19984;-54
2022/10/20 07:29:56;;;;;;;;;;;23.00;99.90;;;;;;5009911;28;20008;-54
2022/10/20 07:32:22;;;;;;;;;;;23.00;99.90;;;;;;4994680;28;20282;-54
2022/10/20 07:34:47;;;;;;;;;;;23.00;99.90;;;;;;4994686;28;19913;-54
2022/10/20 07:37:13;;;;;;;;;;;23.00;99.90;;;;;;4994559;28;19906;-54
2022/10/20 07:39:39;;;;;;;;;;;23.10;99.90;;;;;;4994517;28;20285;-54
2022/10/20 07:42:04;;;;;;;;;;;23.10;99.90;;;;;;4994471;28;19914;-54
2022/10/20 07:44:30;;;;;;;;;;;23.10;99.90;;;;;;4994420;28;20447;-54
2022/10/20 07:46:55;;;;;;;;;;;23.10;99.90;;;;;;4994299;28;19952;-54
2022/10/20 07:49:21;;;;;;;;;;;23.10;99.90;;;;;;4994230;28;20202;-54
2022/10/20 07:51:46;;;;;;;;;;;23.20;99.90;;;;;;4994389;28;19905;-54
2022/10/20 07:54:12;;;;;;;;;;;23.10;99.90;;;;;;5009399;28;19909;-54
2022/10/20 07:56:39;;;;;;;;;;;23.10;99.90;;;;;;4994171;28;19905;-54
2022/10/20 07:59:05;;;;;;;;;;;23.10;99.90;;;;;;4994018;28;19909;-55
2022/10/20 08:01:31;;;;;;;;;;;23.10;99.90;;;;;;4992511;28;19925;-54
2022/10/20 08:03:57;;;;;;;;;;;23.20;99.90;;;;;;4994153;28;19906;-55
2022/10/20 08:06:22;;;;;;;;;;;23.20;99.90;;;;;;4993974;28;19931;-55
2022/10/20 08:08:48;;;;;;;;;;;23.20;99.90;;;;;;4994056;28;19906;-55
2022/10/20 08:11:14;;;;;;;;;;;23.20;99.90;;;;;;4993678;28;20001;-55
2022/10/20 08:13:40;;;;;;;;;;;23.20;99.90;;;;;;4993751;28;20045;-54
2022/10/20 08:16:06;;;;;;;;;;;23.20;99.90;;;;;;4993748;28;20362;-55
2022/10/20 08:18:32;;;;;;;;;;;23.30;99.90;;;;;;4993638;28;19905;-55
2022/10/20 08:21:07;;;;;;;;;;;23.20;99.90;;;;;;4992247;28;19913;-54
2022/10/20 08:23:33;;;;;;;;;;;23.20;99.90;;;;;;4993599;28;19967;-55
2022/10/20 08:25:59;;;;;;;;;;;23.20;99.90;;;;;;4993560;28;19905;-55
2022/10/20 08:28:24;;;;;;;;;;;23.30;99.90;;;;;;4993063;28;19906;-55
2022/10/20 08:30:50;;;;;;;;;;;23.30;99.90;;;;;;4993200;28;20016;-54
2022/10/20 08:33:15;;;;;;;;;;;23.30;99.90;;;;;;4993291;28;19909;-55
2022/10/20 08:35:41;;;;;;;;;;;23.30;99.90;;;;;;5008509;28;20176;-54
2022/10/20 08:38:07;;;;;;;;;;;23.30;99.90;;;;;;4993253;28;19909;-54
2022/10/20 08:40:33;;;;;;;;;;;23.30;99.90;;;;;;4993133;28;20277;-54
2022/10/20 08:42:59;;;;;;;;;;;23.30;99.90;;;;;;4993053;28;19920;-54
2022/10/20 08:45:26;;;;;;;;;;;23.40;99.90;;;;;;4993220;28;19905;-54
2022/10/20 08:47:52;;;;;;;;;;;23.40;99.90;;;;;;4993198;28;19912;-54
2022/10/20 08:50:20;;;;;;;;;;;23.40;99.90;;;;;;4993054;28;20388;-54
2022/10/20 08:52:46;;;;;;;;;;;23.40;99.90;;;;;;4993385;28;19964;-54
2022/10/20 08:55:21;;;;;;;;;;;23.40;99.90;;;;;;4993200;28;19952;-54
2022/10/20 08:57:47;;;;;;;;;;;23.40;99.90;;;;;;4991962;28;19916;-55
2022/10/20 09:00:14;;;;;;;;;;;23.40;99.90;;;;;;4993143;28;19910;-55
2022/10/20 09:02:40;;;;;;;;;;;23.40;99.90;;;;;;4992854;28;19998;-54
2022/10/20 09:05:06;;;;;;;;;;;23.40;99.90;;;;;;4992765;28;20309;-54
2022/10/20 09:07:37;;;;;;;;;;;23.40;99.90;;;;;;4991593;28;19926;-54
2022/10/20 09:10:15;;;;;;;;;;;23.40;99.90;;;;;;4992890;28;19960;-55
2022/10/20 09:12:42;;;;;;;;;;;23.40;99.90;;;;;;4992650;28;19906;-55
2022/10/20 09:15:10;;;;;;;;;;;23.40;99.90;;;;;;4992771;28;19993;-54
2022/10/20 09:17:35;;;;;;;;;;;23.40;99.90;;;;;;4992534;28;20384;-54
2022/10/20 09:20:02;;;;;;;;;;;23.40;99.90;;;;;;4992720;28;19906;-54
2022/10/20 09:22:27;;;;;;;;;;;23.40;99.90;;;;;;4992442;28;19960;-55
2022/10/20 09:24:55;;;;;;;;;;;23.40;99.90;;;;;;4991774;28;19906;-54
2022/10/20 09:27:22;;;;;;;;;;;23.40;99.90;;;;;;4992369;28;20378;-54
2022/10/20 09:29:48;;;;;;;;;;;23.40;99.90;;;;;;4991461;28;19928;-54
2022/10/20 09:32:18;;;;;;;;;;;23.50;99.90;;;;;;4992390;28;20346;-54
2022/10/20 09:34:44;;;;;;;;;;;23.50;99.90;;;;;;4992595;28;19913;-54
2022/10/20 09:37:09;;;;;;;;;;;23.60;99.90;;;;;;4992438;28;20291;-55
2022/10/20 09:39:41;;;;;;;;;;;23.60;99.90;;;;;;4992377;28;20369;-54
2022/10/20 09:42:14;;;;;;;;;;;23.70;99.90;;;;;;4992257;28;19913;-55
2022/10/20 09:44:48;;;;;;;;;;;23.70;99.90;;;;;;4992074;28;19913;-55
2022/10/20 09:47:14;;;;;;;;;;;23.80;99.90;;;;;;4992115;28;19905;-55
2022/10/20 09:49:41;;;;;;;;;;;23.80;99.90;;;;;;4991942;28;19906;-55
2022/10/20 09:52:46;;;;;;;;;;;23.80;99.90;;;;;;4991922;28;19905;-54
2022/10/20 09:55:31;;;;;;;;;;;23.80;99.90;;;;;;4991515;28;19910;-54
2022/10/20 09:57:59;;;;;;;;;;;23.90;99.90;;;;;;4992027;28;19917;-54
2022/10/20 10:00:26;;;;;;;;;;;23.80;99.90;;;;;;4991838;28;20385;-54
2022/10/20 10:03:18;;;;;;;;;;;23.80;99.90;;;;;;4992059;28;19921;-54
2022/10/20 10:05:44;;;;;;;;;;;23.80;99.90;;;;;;4991969;28;19917;-54
2022/10/20 10:08:13;;;;;;;;;;;23.90;99.90;;;;;;4991934;28;19906;-54
2022/10/20 10:10:38;;;;;;;;;;;23.90;99.90;;;;;;4992020;28;20357;-54
2022/10/20 10:13:04;;;;;;;;;;;23.90;99.90;;;;;;4991883;28;19905;-54
2022/10/20 10:15:31;;;;;;;;;;;23.90;99.90;;;;;;4991886;28;20276;-55
2022/10/20 10:17:57;;;;;;;;;;;23.90;99.90;;;;;;4991805;28;19992;-54
2022/10/20 10:20:29;;;;;;;;;;;23.90;99.90;;;;;;4991809;28;20246;-54
2022/10/20 10:23:13;;;;;;;;;;;24.00;99.90;;;;;;4991766;28;20370;-54
2022/10/20 10:25:39;;;;;;;;;;;24.00;99.90;;;;;;4991629;28;19929;-54
2022/10/20 10:28:18;;;;;;;;;;;24.10;99.90;;;;;;4991728;28;20365;-55
2022/10/20 10:30:44;;;;;;;;;;;24.10;99.90;;;;;;4991817;28;19916;-54
2022/10/20 10:33:26;;;;;;;;;;;24.10;99.90;;;;;;4991749;28;19992;-54
2022/10/20 10:35:52;;;;;;;;;;;24.20;99.90;;;;;;4994044;28;19955;-54
2022/10/20 10:38:18;;;;;;;;;;;24.20;99.90;;;;;;4995488;28;19960;-54
2022/10/20 10:40:46;;;;;;;;;;;24.20;99.90;;;;;;4995517;28;19909;-54
2022/10/20 10:43:12;;;;;;;;;;;24.20;99.90;;;;;;4995295;28;20191;-55
2022/10/20 10:45:42;;;;;;;;;;;24.20;99.90;;;;;;4995348;28;19933;-55
2022/10/20 10:48:08;;;;;;;;;;;24.20;99.90;;;;;;4995574;28;19995;-55
2022/10/20 10:50:42;;;;;;;;;;;24.20;99.90;;;;;;4995275;28;20366;-55
2022/10/20 10:53:08;;;;;;;;;;;24.20;99.90;;;;;;4995690;28;19949;-55
2022/10/20 10:55:39;;;;;;;;;;;24.30;99.90;;;;;;4995406;28;19956;-55
2022/10/20 10:58:04;;;;;;;;;;;24.30;99.90;;;;;;4995624;28;19949;-55
2022/10/20 11:00:41;;;;;;;;;;;24.30;99.90;;;;;;4995064;28;20350;-55
2022/10/20 11:03:13;;;;;;;;;;;24.30;99.90;;;;;;4995096;28;19918;-55
2022/10/20 11:05:55;;;;;;;;;;;24.20;99.90;;;;;;4995246;28;19906;-54
2022/10/20 11:08:29;;;;;;;;;;;24.20;99.90;;;;;;4995159;28;20366;-55
2022/10/20 11:10:55;;;;;;;;;;;24.30;99.90;;;;;;4995210;28;20350;-54
2022/10/20 11:13:35;;;;;;;;;;;24.30;99.90;;;;;;4994976;28;19960;-54
2022/10/20 11:16:19;;;;;;;;;;;24.30;99.90;;;;;;4994639;28;19912;-54
2022/10/20 11:18:48;;;;;;;;;;;24.20;99.90;;;;;;4994829;28;19996;-54
2022/10/20 11:21:28;;;;;;;;;;;24.20;99.90;;;;;;4994598;28;19905;-54
2022/10/20 11:24:03;;;;;;;;;;;24.20;99.90;;;;;;4994903;28;19997;-55
2022/10/20 11:26:31;;;;;;;;;;;24.20;99.90;;;;;;4994462;28;19960;-54
2022/10/20 11:28:58;;;;;;;;;;;24.10;99.90;;;;;;4994991;28;20272;-54
2022/10/20 11:31:30;;;;;;;;;;;24.10;99.90;;;;;;4994996;28;19948;-54
2022/10/20 11:34:04;;;;;;;;;;;24.10;99.90;;;;;;4994633;28;19917;-54
2022/10/20 11:36:41;;;;;;;;;;;24.10;99.90;;;;;;4994567;28;19945;-54
2022/10/20 11:39:13;;;;;;;;;;;24.10;99.90;;;;;;4994605;28;19913;-55
2022/10/20 11:41:43;;;;;;;;;;;24.10;99.90;;;;;;4994389;28;20059;-54
2022/10/20 11:44:27;;;;;;;;;;;24.00;99.90;;;;;;4994233;28;19905;-54
2022/10/20 11:46:56;;;;;;;;;;;24.00;99.90;;;;;;4991928;28;19913;-54
2022/10/20 11:49:22;;;;;;;;;;;24.00;99.90;;;;;;4994406;28;19914;-54
2022/10/20 11:51:53;;;;;;;;;;;24.10;99.90;;;;;;4994277;28;19905;-54
2022/10/20 11:54:31;;;;;;;;;;;24.00;99.90;;;;;;4994292;28;19921;-54
2022/10/20 11:57:15;;;;;;;;;;;24.00;99.90;;;;;;4994514;28;19906;-54
2022/10/20 11:59:53;;;;;;;;;;;24.00;99.90;;;;;;4993904;28;19905;-53
2022/10/20 12:02:38;;;;;;;;;;;24.00;99.90;;;;;;4993940;28;19918;-54
2022/10/20 12:05:20;;;;;;;;;;;24.00;99.90;;;;;;4993636;28;19906;-54
2022/10/20 12:07:46;;;;;;;;;;;24.00;99.90;;;;;;4994065;28;19929;-54
2022/10/20 12:10:26;;;;;;;;;;;24.00;99.90;;;;;;4994013;28;19925;-54
2022/10/20 12:13:10;;;;;;;;;;;24.00;99.90;;;;;;4993901;28;19941;-54
2022/10/20 12:15:44;;;;;;;;;;;23.90;99.90;;;;;;4993841;28;19905;-54
2022/10/20 12:18:36;;;;;;;;;;;23.90;99.90;;;;;;4993929;28;20567;-54
2022/10/20 12:21:06;;;;;;;;;;;23.90;99.90;;;;;;4993243;28;19960;-54
2022/10/20 12:23:41;;;;;;;;;;;23.90;99.90;;;;;;4993681;28;19906;-54
2022/10/20 12:26:25;;;;;;;;;;;23.90;99.90;;;;;;4993732;28;20274;-54
2022/10/20 12:28:51;;;;;;;;;;;23.90;99.90;;;;;;4993670;28;20343;-54
2022/10/20 12:31:16;;;;;;;;;;;23.90;99.90;;;;;;4993356;28;19905;-54
2022/10/20 12:33:48;;;;;;;;;;;23.90;99.90;;;;;;4993259;28;19949;-54
2022/10/20 12:36:17;;;;;;;;;;;23.90;99.90;;;;;;4993484;28;19913;-54
2022/10/20 12:38:43;;;;;;;;;;;23.90;99.90;;;;;;4993321;28;19910;-54
2022/10/20 12:41:11;;;;;;;;;;;23.90;99.90;;;;;;4993249;28;19913;-54
2022/10/20 12:43:48;;;;;;;;;;;23.90;99.90;;;;;;4993521;28;20002;-54
2022/10/20 12:46:21;;;;;;;;;;;23.80;99.90;;;;;;4990670;28;19948;-53
2022/10/20 12:48:47;;;;;;;;;;;23.80;99.90;;;;;;4990727;28;19933;-53
2022/10/20 12:51:24;;;;;;;;;;;23.80;99.90;;;;;;4982678;28;19910;-56
2022/10/20 12:53:52;;;;;;;;;;;23.80;99.90;;;;;;4977610;28;19917;-54
2022/10/20 12:56:19;;;;;;;;;;;23.70;99.90;;;;;;4990620;28;19912;-56
2022/10/20 12:59:03;;;;;;;;;;;23.60;99.90;;;;;;4988829;28;19964;-56
2022/10/20 13:01:28;;;;;;;;;;;23.60;99.90;;;;;;4986362;28;20366;-56
2022/10/20 13:03:54;;;;;;;;;;;23.60;99.90;;;;;;4991547;28;20040;-56
2022/10/20 13:06:23;;;;;;;;;;;23.60;99.90;;;;;;4987696;28;19910;-56
2022/10/20 13:09:14;;;;;;;;;;;23.50;99.90;;;;;;4991230;28;20393;-56
2022/10/20 13:11:41;;;;;;;;;;;23.50;99.90;;;;;;4984632;28;19910;-55
2022/10/20 13:14:16;;;;;;;;;;;23.50;99.90;;;;;;4986175;28;20357;-53
2022/10/20 13:16:57;;;;;;;;;;;23.50;99.90;;;;;;4988460;28;19996;-55
2022/10/20 13:19:34;;;;;;;;;;;23.50;99.90;;;;;;4984065;28;19945;-55
2022/10/20 13:22:19;;;;;;;;;;;23.50;99.90;;;;;;4981182;28;19976;-55
2022/10/20 13:24:45;;;;;;;;;;;23.50;99.90;;;;;;4987441;28;19906;-51
2022/10/20 13:27:11;;;;;;;;;;;23.50;99.90;;;;;;4987485;28;19952;-52
2022/10/20 13:29:38;;;;;;;;;;;23.50;99.90;;;;;;4984104;28;20282;-53
2022/10/20 13:32:11;;;;;;;;;;;23.40;99.90;;;;;;4983637;28;19906;-53
2022/10/20 13:34:40;;;;;;;;;;;23.50;99.90;;;;;;4986998;28;19953;-54
2022/10/20 13:37:06;;;;;;;;;;;23.50;99.90;;;;;;4983876;28;19917;-55
2022/10/20 13:39:37;;;;;;;;;;;23.50;99.90;;;;;;4987509;28;19910;-55
2022/10/20 13:42:22;;;;;;;;;;;23.40;99.90;;;;;;4983270;28;20353;-55
2022/10/20 13:45:01;;;;;;;;;;;23.40;99.90;;;;;;4985525;28;19917;-54
2022/10/20 13:47:33;;;;;;;;;;;23.50;99.90;;;;;;4987039;28;19972;-55
2022/10/20 13:50:04;;;;;;;;;;;23.50;99.90;;;;;;4985379;28;20020;-55
2022/10/20 13:52:31;;;;;;;;;;;23.50;99.90;;;;;;4986184;28;19910;-55
2022/10/20 13:54:57;;;;;;;;;;;23.50;99.90;;;;;;4982116;28;19913;-55
2022/10/20 13:57:23;;;;;;;;;;;23.50;99.90;;;;;;4983532;28;19976;-55
2022/10/20 13:59:59;;;;;;;;;;;23.50;99.90;;;;;;4984278;28;20277;-55
2022/10/20 14:02:29;;;;;;;;;;;23.50;99.90;;;;;;4982659;28;19925;-54
2022/10/20 14:05:05;;;;;;;;;;;23.50;99.90;;;;;;4988943;28;19925;-54
2022/10/20 14:07:35;;;;;;;;;;;23.50;99.90;;;;;;4989869;28;19992;-54
2022/10/20 14:10:00;;;;;;;;;;;23.60;99.90;;;;;;4989072;28;19954;-55
2022/10/20 14:12:26;;;;;;;;;;;23.50;99.90;;;;;;4992805;28;20939;-55
2022/10/20 14:14:54;;;;;;;;;;;23.50;99.90;;;;;;4991744;28;19914;-54
2022/10/20 14:17:21;;;;;;;;;;;23.50;99.90;;;;;;4986490;28;19912;-55
2022/10/20 14:19:47;;;;;;;;;;;23.50;99.90;;;;;;4991761;28;20006;-55
2022/10/20 14:22:23;;;;;;;;;;;23.50;99.90;;;;;;4990311;28;20333;-56
2022/10/20 14:24:53;;;;;;;;;;;23.50;99.90;;;;;;4994281;28;19905;-56
2022/10/20 14:27:20;;;;;;;;;;;23.50;99.90;;;;;;4996112;28;19968;-55